Startpagina
METAR-TAF:

METAR-TAF

Vliegvelden :

Luchthaven Ivato

Antananarivo, Madagaskar

breedte: 18-48S, lengte: 047-29E, hoogte: 1279 m

Actueel weer

Dit bericht is 20 minuten geleden gemaakt, om 04:30 UTC
Wind 2 kt uit het oostnoordoosten
Temperatuur 14°C
Vochtigheid 100%
Druk 1022 hPa
Zicht 10 km of meer
Weinig wolken op 700 ft

METAR: FMMI 130430Z 06002KT 9999 FEW007 14/14 Q1022 NOSIG

Tijdstip: 07:50 (04:50 UTC)

Verwachting

Dit bericht is 5 uur en het 50 minuten geleden gemaakt, om 23:00 UTC
Verwachting geldig van 13 om 00 UTC tot 14 om 06 UTC
Wind 5 kt uit het zuidoosten
Zicht 10 km of meer
Weinig wolken op 1000 ft
Gebroken wolken op 2000 ft
Kans 30%
van 13 om 00 UTC tot 13 om 05 UTC
Zicht: 0400 m
Gebroken wolken op 400 ft
mist
Kans 30%
van 14 om 00 UTC tot 14 om 06 UTC
Zicht: 0400 m
Gebroken wolken op 400 ft
mist,

TAF: FMMI 122300Z 1300/1406 14005KT 9999 FEW010 BKN020 PROB30 1300/1305 0400 FG BKN004 PROB30 1400/1406 0400 FG BKN004

Waarnemingen en weersverwachtingen van meer dan 4000 vliegvelden (METAR en TAF).

De beschikbare stations zijn de gele en rode punten op de kaart.

Ga met uw muis naar het station om de naam te zien.

Klik dan om waarnemingen en weersverwachtingen te zien.

kaart wijzigen: klik op de groene knoppen met een zwart kruis om in te zoomen, op de groene knop met een streepje om uit te zoomen of op de groene pijlen voor aangrenzende kaarten.


METAR-TAF: